createdAt,value
2019-05-11T00:02:08.803Z,10.60
2019-05-11T00:04:35.541Z,10.62
2019-05-11T00:07:05.170Z,10.62
2019-05-11T00:09:31.919Z,10.64
2019-05-11T00:11:58.675Z,10.67
2019-05-11T00:14:25.429Z,10.69
2019-05-11T00:16:52.217Z,10.71
2019-05-11T00:19:18.977Z,10.73
2019-05-11T00:21:45.766Z,10.76
2019-05-11T00:24:12.546Z,10.75
2019-05-11T00:26:39.330Z,10.75
2019-05-11T00:29:06.124Z,10.74
2019-05-11T00:31:32.881Z,10.74
2019-05-11T00:33:59.672Z,10.75
2019-05-11T00:36:26.416Z,10.75
2019-05-11T00:38:53.153Z,10.74
2019-05-11T00:41:19.936Z,10.74
2019-05-11T00:43:46.706Z,10.75
2019-05-11T00:46:13.542Z,10.78
2019-05-11T00:48:40.356Z,10.79
2019-05-11T00:51:07.098Z,10.79
2019-05-11T00:53:33.899Z,10.80
2019-05-11T00:56:00.642Z,10.81
2019-05-11T00:58:27.426Z,10.80
2019-05-11T01:00:54.186Z,10.75
2019-05-11T01:03:20.969Z,10.75
2019-05-11T01:05:47.818Z,10.74
2019-05-11T01:08:14.640Z,10.75
2019-05-11T01:10:42.638Z,10.73
2019-05-11T01:13:09.638Z,10.73
2019-05-11T01:15:36.402Z,10.74
2019-05-11T01:18:03.153Z,10.75
2019-05-11T01:20:29.936Z,10.77
2019-05-11T01:22:56.732Z,10.75
2019-05-11T01:25:25.202Z,10.72
2019-05-11T01:27:51.956Z,10.69
2019-05-11T01:30:18.719Z,10.65
2019-05-11T01:32:45.487Z,10.65
2019-05-11T01:35:12.244Z,10.66
2019-05-11T01:37:39.007Z,10.67
2019-05-11T01:40:06.652Z,10.68
2019-05-11T01:42:33.431Z,10.70
2019-05-11T01:45:00.151Z,10.70
2019-05-11T01:47:26.942Z,10.68
2019-05-11T01:49:53.686Z,10.64
2019-05-11T01:52:20.458Z,10.65
2019-05-11T01:54:47.204Z,10.65
2019-05-11T01:57:13.933Z,10.68
2019-05-11T01:59:40.553Z,10.69
2019-05-11T02:02:07.188Z,10.65
2019-05-11T02:04:33.812Z,10.57
2019-05-11T02:07:00.497Z,10.52
2019-05-11T02:09:27.211Z,10.46
2019-05-11T02:11:53.847Z,10.40
2019-05-11T02:14:20.559Z,10.38
2019-05-11T02:16:47.185Z,10.33
2019-05-11T02:19:13.807Z,10.31
2019-05-11T02:21:40.531Z,10.25
2019-05-11T02:24:07.163Z,10.24
2019-05-11T02:26:33.796Z,10.23
2019-05-11T02:29:00.522Z,10.24
2019-05-11T02:31:27.136Z,10.28
2019-05-11T02:33:53.785Z,10.28
2019-05-11T02:36:20.472Z,10.29
2019-05-11T02:38:47.081Z,10.32
2019-05-11T02:41:13.712Z,10.34
2019-05-11T02:43:40.449Z,10.35
2019-05-11T02:46:07.275Z,10.35
2019-05-11T02:48:33.997Z,10.34
2019-05-11T02:51:00.719Z,10.28
2019-05-11T02:53:27.929Z,10.26
2019-05-11T02:55:54.645Z,10.26
2019-05-11T02:58:21.233Z,10.27
2019-05-11T03:00:47.871Z,10.25
2019-05-11T03:03:14.484Z,10.19
2019-05-11T03:05:41.224Z,10.18
2019-05-11T03:08:07.919Z,10.19
2019-05-11T03:10:34.623Z,10.22
2019-05-11T03:13:01.406Z,10.20
2019-05-11T03:15:28.116Z,10.20
2019-05-11T03:17:54.737Z,10.15
2019-05-11T03:20:21.475Z,10.09
2019-05-11T03:22:48.097Z,10.02
2019-05-11T03:25:14.821Z,10.02
2019-05-11T03:27:41.454Z,10.02
2019-05-11T03:30:08.098Z,10.02
2019-05-11T03:32:34.825Z,10.03
2019-05-11T03:35:01.612Z,10.01
2019-05-11T03:37:28.364Z,10.00
2019-05-11T03:39:54.995Z,9.99
2019-05-11T03:42:21.641Z,9.97
2019-05-11T03:44:48.231Z,9.97
2019-05-11T03:47:14.846Z,9.96
2019-05-11T03:49:41.495Z,9.96
2019-05-11T03:52:08.223Z,9.98
2019-05-11T03:54:34.970Z,9.99
2019-05-11T03:57:01.617Z,10.01
2019-05-11T03:59:28.323Z,10.04
2019-05-11T04:01:54.978Z,10.03
2019-05-11T04:04:21.674Z,9.98
2019-05-11T04:06:48.309Z,9.97
2019-05-11T04:09:15.018Z,9.99
2019-05-11T04:11:41.756Z,10.01
2019-05-11T04:14:08.471Z,10.01
2019-05-11T04:16:35.200Z,10.02
2019-05-11T04:19:01.842Z,10.25
2019-05-11T04:21:28.463Z,10.71
2019-05-11T04:23:55.085Z,11.06
2019-05-11T04:26:21.809Z,11.38
2019-05-11T04:28:48.424Z,11.68
2019-05-11T04:31:15.087Z,12.00
2019-05-11T04:33:41.684Z,12.32
2019-05-11T04:36:08.306Z,12.45
2019-05-11T04:38:34.921Z,12.68
2019-05-11T04:41:01.650Z,12.88
2019-05-11T04:43:28.368Z,12.98
2019-05-11T04:45:55.002Z,12.99
2019-05-11T04:48:21.739Z,12.95
2019-05-11T04:50:48.354Z,12.92
2019-05-11T04:53:15.109Z,12.92
2019-05-11T04:55:41.831Z,12.91
2019-05-11T04:58:08.442Z,12.86
2019-05-11T05:00:35.163Z,12.81
2019-05-11T05:03:01.859Z,12.79
2019-05-11T05:05:28.491Z,12.87
2019-05-11T05:08:08.544Z,12.89
2019-05-11T05:10:24.149Z,12.84
2019-05-11T05:12:52.968Z,12.84
2019-05-11T05:15:19.565Z,12.96
2019-05-11T05:17:46.294Z,13.18
2019-05-11T05:20:12.998Z,13.33
2019-05-11T05:22:39.664Z,13.43
2019-05-11T05:25:06.994Z,13.45
2019-05-11T05:27:33.656Z,13.44
2019-05-11T05:30:00.267Z,13.31
2019-05-11T05:32:26.916Z,13.27
2019-05-11T05:34:53.619Z,13.25
2019-05-11T05:37:20.387Z,13.29
2019-05-11T05:39:47.074Z,13.40
2019-05-11T05:42:13.694Z,13.37
2019-05-11T05:44:40.325Z,13.27
2019-05-11T05:47:07.030Z,13.16
2019-05-11T05:49:33.661Z,13.04
2019-05-11T05:52:00.278Z,12.98
2019-05-11T05:54:27.036Z,12.98
2019-05-11T05:56:53.640Z,12.99
2019-05-11T05:59:20.282Z,13.01
2019-05-11T06:01:47.003Z,12.98
2019-05-11T06:04:13.616Z,12.95
2019-05-11T06:06:40.405Z,12.93
2019-05-11T06:09:07.174Z,12.91
2019-05-11T06:11:33.832Z,12.85
2019-05-11T06:14:00.446Z,12.87
2019-05-11T06:16:27.183Z,12.93
2019-05-11T06:18:53.810Z,12.99
2019-05-11T06:21:20.469Z,13.02
2019-05-11T06:23:47.203Z,12.93
2019-05-11T06:26:13.841Z,12.75
2019-05-11T06:28:40.472Z,12.68
2019-05-11T06:31:07.084Z,12.62
2019-05-11T06:33:33.839Z,12.61
2019-05-11T06:36:00.446Z,12.59
2019-05-11T06:38:27.087Z,12.64
2019-05-11T06:40:53.794Z,12.65
2019-05-11T06:43:20.404Z,12.73
2019-05-11T06:45:47.083Z,12.86
2019-05-11T06:48:13.707Z,13.01
2019-05-11T06:50:40.322Z,13.17
2019-05-11T06:53:07.069Z,13.32
2019-05-11T06:55:33.769Z,13.51
2019-05-11T06:58:00.447Z,13.63
2019-05-11T07:00:27.069Z,13.65
2019-05-11T07:02:53.755Z,13.72
2019-05-11T07:05:20.396Z,13.73
2019-05-11T07:07:48.038Z,13.79
2019-05-11T07:10:14.842Z,13.66
2019-05-11T07:12:41.460Z,13.68
2019-05-11T07:15:08.718Z,13.70
2019-05-11T07:17:35.416Z,13.78
2019-05-11T07:20:02.099Z,13.84
2019-05-11T07:22:28.806Z,13.96
2019-05-11T07:24:55.431Z,14.09
2019-05-11T07:27:22.088Z,14.24
2019-05-11T07:29:48.816Z,14.27
2019-05-11T07:32:24.813Z,14.24
2019-05-11T07:34:44.081Z,14.17
2019-05-11T07:37:10.711Z,14.21
2019-05-11T07:39:38.297Z,14.22
2019-05-11T07:42:05.153Z,14.14
2019-05-11T07:44:38.377Z,14.09
2019-05-11T07:47:00.314Z,14.10
2019-05-11T07:49:29.043Z,14.19
2019-05-11T07:51:55.503Z,14.32
2019-05-11T07:54:22.128Z,14.43
2019-05-11T07:56:48.761Z,14.56
2019-05-11T07:59:15.406Z,14.72
2019-05-11T08:01:42.121Z,14.87
2019-05-11T08:04:08.736Z,14.90
2019-05-11T08:06:35.381Z,14.95
2019-05-11T08:09:02.201Z,14.99
2019-05-11T08:11:31.416Z,15.01
2019-05-11T08:13:58.462Z,15.03
2019-05-11T08:16:28.221Z,15.10
2019-05-11T08:18:53.832Z,15.24
2019-05-11T08:21:20.543Z,15.41
2019-05-11T08:23:48.291Z,15.49
2019-05-11T08:26:15.323Z,15.50
2019-05-11T08:28:41.970Z,15.62
2019-05-11T08:31:08.613Z,15.69
2019-05-11T08:33:35.332Z,15.72
2019-05-11T08:36:01.980Z,15.85
2019-05-11T08:38:28.704Z,15.92
2019-05-11T08:40:55.350Z,15.82
2019-05-11T08:43:22.074Z,15.98
2019-05-11T08:45:48.753Z,16.01
2019-05-11T08:48:15.482Z,15.88
2019-05-11T08:50:42.115Z,15.92
2019-05-11T08:53:08.867Z,16.06
2019-05-11T08:55:37.969Z,15.90
2019-05-11T08:58:04.059Z,16.01
2019-05-11T09:00:30.681Z,15.99
2019-05-11T09:02:58.224Z,16.13
2019-05-11T09:05:25.175Z,16.41
2019-05-11T09:07:51.891Z,16.61
2019-05-11T09:10:23.492Z,16.66
2019-05-11T09:12:50.346Z,16.89
2019-05-11T09:15:29.898Z,17.07
2019-05-11T09:17:45.529Z,17.13
2019-05-11T09:20:12.249Z,17.36
2019-05-11T09:22:38.891Z,17.50
2019-05-11T09:25:05.537Z,17.65
2019-05-11T09:27:32.187Z,17.61
2019-05-11T09:29:59.150Z,17.59
2019-05-11T09:32:28.328Z,17.48
2019-05-11T09:34:54.385Z,17.49
2019-05-11T09:37:21.037Z,17.52
2019-05-11T09:39:47.984Z,17.59
2019-05-11T09:42:14.669Z,17.61
2019-05-11T09:44:41.923Z,17.62
2019-05-11T09:47:08.617Z,17.67
2019-05-11T09:49:46.598Z,17.52
2019-05-11T09:52:03.977Z,17.39
2019-05-11T09:54:30.734Z,17.22
2019-05-11T09:56:57.952Z,17.25
2019-05-11T09:59:24.702Z,17.37
2019-05-11T10:01:51.373Z,17.59
2019-05-11T10:04:18.255Z,17.82
2019-05-11T10:06:45.009Z,18.06
2019-05-11T10:09:11.743Z,18.43
2019-05-11T10:11:39.874Z,18.79
2019-05-11T10:14:08.370Z,19.12
2019-05-11T10:16:35.266Z,19.55
2019-05-11T10:19:01.907Z,19.90
2019-05-11T10:21:28.641Z,20.23
2019-05-11T10:23:55.362Z,20.40
2019-05-11T10:26:22.110Z,20.64
2019-05-11T10:28:48.736Z,20.92
2019-05-11T10:31:17.806Z,21.18
2019-05-11T10:33:44.029Z,21.30
2019-05-11T10:36:10.678Z,20.96
2019-05-11T10:38:37.971Z,20.57
2019-05-11T10:41:05.061Z,20.54
2019-05-11T10:43:31.695Z,20.37
2019-05-11T10:45:58.891Z,20.18
2019-05-11T10:48:28.067Z,19.79
2019-05-11T10:50:54.239Z,19.45
2019-05-11T10:53:21.011Z,19.02
2019-05-11T10:55:48.014Z,18.44
2019-05-11T10:58:14.802Z,18.05
2019-05-11T11:00:41.448Z,17.55
2019-05-11T11:03:08.528Z,17.22
2019-05-11T11:05:35.448Z,17.01
2019-05-11T11:08:02.074Z,16.76
2019-05-11T11:10:28.885Z,16.62
2019-05-11T11:12:57.691Z,16.41
2019-05-11T11:15:24.170Z,16.21
2019-05-11T11:17:50.939Z,15.93
2019-05-11T11:20:18.666Z,15.56
2019-05-11T11:22:47.887Z,15.17
2019-05-11T11:25:14.099Z,14.85
2019-05-11T11:27:40.776Z,14.55
2019-05-11T11:30:09.124Z,14.29
2019-05-11T11:32:38.140Z,14.09
2019-05-11T11:35:04.587Z,13.97
2019-05-11T11:37:31.228Z,13.80
2019-05-11T11:39:58.221Z,13.67
2019-05-11T11:42:24.999Z,13.61
2019-05-11T11:44:51.712Z,13.54
2019-05-11T11:47:21.388Z,13.49
2019-05-11T11:49:47.564Z,13.44
2019-05-11T11:52:14.425Z,13.31
2019-05-11T11:54:41.179Z,13.27
2019-05-11T11:57:07.885Z,13.26
2019-05-11T11:59:34.616Z,13.22
2019-05-11T12:02:01.317Z,13.22
2019-05-11T12:04:28.412Z,13.24
2019-05-11T12:06:55.313Z,13.21
2019-05-11T12:09:21.964Z,13.14
2019-05-11T12:11:49.127Z,13.09
2019-05-11T12:14:15.841Z,13.05
2019-05-11T12:16:42.483Z,13.08
2019-05-11T12:19:09.492Z,13.07
2019-05-11T12:21:37.988Z,13.06
2019-05-11T12:24:04.774Z,12.95
2019-05-11T12:26:31.532Z,12.87
2019-05-11T12:28:58.178Z,12.77
2019-05-11T12:31:25.022Z,12.57
2019-05-11T12:33:51.785Z,12.37
2019-05-11T12:36:18.998Z,12.31
2019-05-11T12:38:45.826Z,12.22
2019-05-11T12:41:12.470Z,12.18
2019-05-11T12:43:39.219Z,12.15
2019-05-11T12:46:08.046Z,12.17
2019-05-11T12:48:34.421Z,12.12
2019-05-11T12:51:01.056Z,12.21
2019-05-11T12:53:28.067Z,12.25
2019-05-11T12:55:54.891Z,12.24
2019-05-11T12:58:21.526Z,12.26
2019-05-11T13:00:48.222Z,12.19
2019-05-11T13:03:14.910Z,12.15
2019-05-11T13:05:41.676Z,12.19
2019-05-11T13:08:08.279Z,12.13
2019-05-11T13:10:34.862Z,12.06
2019-05-11T13:13:02.815Z,12.03
2019-05-11T13:15:29.667Z,12.05
2019-05-11T13:17:58.116Z,12.08
2019-05-11T13:20:24.838Z,12.12
2019-05-11T13:22:51.457Z,12.17
2019-05-11T13:25:19.255Z,12.20
2019-05-11T13:27:46.006Z,12.18
2019-05-11T13:30:12.634Z,12.18
2019-05-11T13:32:39.282Z,12.16
2019-05-11T13:35:06.026Z,12.12
2019-05-11T13:37:32.782Z,12.05
2019-05-11T13:39:59.436Z,11.96
2019-05-11T13:42:27.754Z,11.95
2019-05-11T13:44:54.590Z,11.94
2019-05-11T13:47:21.346Z,11.95
2019-05-11T13:49:48.139Z,11.91
2019-05-11T13:52:14.841Z,11.79
2019-05-11T13:54:41.549Z,11.72
2019-05-11T13:57:08.311Z,11.75
2019-05-11T13:59:34.952Z,11.75
2019-05-11T14:02:01.706Z,11.69
2019-05-11T14:04:28.441Z,11.62
2019-05-11T14:06:55.197Z,11.51
2019-05-11T14:09:21.887Z,11.53
2019-05-11T14:11:48.514Z,11.49
2019-05-11T14:14:15.270Z,11.58
2019-05-11T14:16:42.029Z,11.66
2019-05-11T14:19:08.865Z,11.83
2019-05-11T14:21:35.473Z,11.94
2019-05-11T14:24:02.098Z,11.98
2019-05-11T14:26:28.750Z,11.91
2019-05-11T14:28:55.701Z,11.82
2019-05-11T14:31:23.065Z,11.75
2019-05-11T14:33:49.787Z,11.44
2019-05-11T14:36:18.293Z,11.38
2019-05-11T14:38:54.652Z,11.31
2019-05-11T14:41:21.379Z,11.27
2019-05-11T14:43:48.974Z,11.15
2019-05-11T14:46:23.121Z,11.02
2019-05-11T14:48:49.867Z,10.94
2019-05-11T14:51:17.940Z,10.84
2019-05-11T14:53:51.465Z,10.74
2019-05-11T14:56:19.032Z,10.57
2019-05-11T14:58:52.863Z,10.41
2019-05-11T15:01:19.620Z,10.32
2019-05-11T15:03:48.412Z,10.23
2019-05-11T15:06:24.782Z,10.09
2019-05-11T15:08:51.412Z,10.01
2019-05-11T15:11:19.209Z,9.92
2019-05-11T15:13:53.460Z,9.90
2019-05-11T15:16:20.127Z,9.84
2019-05-11T15:18:48.466Z,9.72
2019-05-11T15:21:25.066Z,9.66
2019-05-11T15:23:51.691Z,9.56
2019-05-11T15:26:18.853Z,9.50
2019-05-11T15:31:57.968Z,9.39
2019-05-11T15:34:32.570Z,9.36
2019-05-11T15:36:59.207Z,9.37
2019-05-11T15:39:25.840Z,9.36
2019-05-11T15:42:06.492Z,9.36
2019-05-11T15:44:28.605Z,9.48
2019-05-11T15:47:02.487Z,9.46
2019-05-11T15:49:29.198Z,9.48
2019-05-11T15:51:57.741Z,9.53
2019-05-11T15:54:34.345Z,9.54
2019-05-11T15:57:01.097Z,9.57
2019-05-11T15:59:27.915Z,9.58
2019-05-11T16:02:02.284Z,9.65
2019-05-11T16:04:28.921Z,9.78
2019-05-11T16:06:57.589Z,9.85
2019-05-11T16:09:30.301Z,9.94
2019-05-11T16:11:57.019Z,10.03
2019-05-11T16:14:23.664Z,10.17
2019-05-11T16:16:50.421Z,10.39
2019-05-11T16:19:19.138Z,10.54
2019-05-11T16:21:52.041Z,10.55
2019-05-11T16:24:18.744Z,10.61
2019-05-11T16:26:47.543Z,10.68
2019-05-11T16:29:19.941Z,10.74
2019-05-11T16:31:48.303Z,10.62
2019-05-11T16:34:25.095Z,10.67
2019-05-11T16:36:51.822Z,10.67
2019-05-11T16:39:18.793Z,10.58
2019-05-11T16:41:53.141Z,10.54
2019-05-11T16:44:19.789Z,10.54
2019-05-11T16:46:48.108Z,10.58
2019-05-11T16:49:29.659Z,10.48
2019-05-11T16:51:59.978Z,10.39
2019-05-11T16:54:27.990Z,10.28
2019-05-11T16:57:04.873Z,10.26
2019-05-11T16:59:31.619Z,10.22
2019-05-11T17:01:58.672Z,10.25
2019-05-11T17:04:36.845Z,10.22
2019-05-11T17:07:03.504Z,10.27
2019-05-11T17:09:30.225Z,10.24
2019-05-11T17:11:57.889Z,10.24
2019-05-11T17:14:31.852Z,10.28
2019-05-11T17:16:58.680Z,10.32
2019-05-11T17:19:45.283Z,10.33
2019-05-11T17:22:13.904Z,10.26
2019-05-11T17:24:40.575Z,10.24
2019-05-11T17:27:08.848Z,10.22
2019-05-11T17:29:42.136Z,10.17
2019-05-11T17:32:08.831Z,10.13
2019-05-11T17:34:35.561Z,10.10
2019-05-11T17:37:02.168Z,10.05
2019-05-11T17:39:28.828Z,9.99
2019-05-11T17:41:55.442Z,9.95
2019-05-11T17:44:22.112Z,9.92
2019-05-11T17:46:48.754Z,9.92
2019-05-11T17:49:15.476Z,9.91
2019-05-11T17:51:42.142Z,9.85
2019-05-11T17:54:11.286Z,9.77
2019-05-11T17:56:48.370Z,9.70
2019-05-11T17:59:22.415Z,9.69
2019-05-11T18:01:49.046Z,9.67
2019-05-11T18:04:15.669Z,9.66
2019-05-11T18:06:42.460Z,9.65
2019-05-11T18:09:09.174Z,9.64
2019-05-11T18:11:38.045Z,9.65
2019-05-11T18:14:14.139Z,9.65
2019-05-11T18:16:40.895Z,9.70
2019-05-11T18:19:08.491Z,9.67
2019-05-11T18:21:48.638Z,9.69
2019-05-11T18:24:21.268Z,9.70
2019-05-11T18:26:48.802Z,9.71
2019-05-11T18:29:28.621Z,9.70
2019-05-11T18:32:01.222Z,9.71
2019-05-11T18:34:27.950Z,9.69
2019-05-11T18:36:54.588Z,9.70
2019-05-11T18:39:21.320Z,9.71
2019-05-11T18:41:48.412Z,9.70
2019-05-11T18:44:26.293Z,9.71
2019-05-11T18:46:53.022Z,9.69
2019-05-11T18:49:19.656Z,9.67
2019-05-11T18:51:48.391Z,9.67
2019-05-11T18:54:21.131Z,9.70
2019-05-11T18:56:48.848Z,9.74
2019-05-11T18:59:22.277Z,9.75
2019-05-11T19:01:49.052Z,9.77
2019-05-11T19:04:18.198Z,9.78
2019-05-11T19:06:50.928Z,9.80
2019-05-11T19:09:18.033Z,9.83
2019-05-11T19:11:57.788Z,9.87
2019-05-11T19:14:31.129Z,9.89
2019-05-11T19:16:57.783Z,9.92
2019-05-11T19:19:24.482Z,9.91
2019-05-11T19:21:51.191Z,9.89
2019-05-11T19:24:18.996Z,9.87
2019-05-11T19:26:58.696Z,9.85
2019-05-11T19:29:34.209Z,9.77
2019-05-11T19:32:01.095Z,9.72
2019-05-11T19:34:28.110Z,9.69
2019-05-11T19:37:02.574Z,9.66
2019-05-11T19:39:29.301Z,9.57
2019-05-11T19:41:57.986Z,9.54
2019-05-11T19:44:30.481Z,9.54
2019-05-11T19:46:58.166Z,9.49
2019-05-11T19:49:32.552Z,9.47
2019-05-11T19:51:59.285Z,9.45
2019-05-11T19:54:32.720Z,9.47
2019-05-11T19:56:59.444Z,9.43
2019-05-11T19:59:27.966Z,9.42
2019-05-11T20:02:20.294Z,9.42
2019-05-11T20:04:48.142Z,9.43
2019-05-11T20:07:22.185Z,9.46
2019-05-11T20:09:48.826Z,9.46
2019-05-11T20:12:17.860Z,9.47
2019-05-11T20:14:50.718Z,9.49
2019-05-11T20:17:18.168Z,9.49
2019-05-11T20:19:52.676Z,9.45
2019-05-11T20:22:19.310Z,9.43
2019-05-11T20:24:47.677Z,9.41
2019-05-11T20:27:20.553Z,9.40
2019-05-11T20:29:47.754Z,9.40
2019-05-11T20:32:27.833Z,9.38
2019-05-11T20:35:00.487Z,9.35
2019-05-11T20:37:28.756Z,9.35
2019-05-11T20:40:05.538Z,9.35
2019-05-11T20:42:32.176Z,9.35
2019-05-11T20:44:58.789Z,9.36
2019-05-11T20:47:25.444Z,9.37
2019-05-11T20:49:52.095Z,9.37
2019-05-11T20:52:18.808Z,9.38
2019-05-11T20:54:47.260Z,9.40
2019-05-11T20:57:20.195Z,9.35
2019-05-11T20:59:46.817Z,9.33
2019-05-11T21:02:13.583Z,9.32
2019-05-11T21:04:40.181Z,9.34
2019-05-11T21:07:08.488Z,9.35
2019-05-11T21:09:41.757Z,9.36
2019-05-11T21:12:08.433Z,9.37
2019-05-11T21:14:35.175Z,9.40
2019-05-11T21:17:02.085Z,9.42
2019-05-11T21:19:28.775Z,9.42
2019-05-11T21:21:55.522Z,9.43
2019-05-11T21:24:22.153Z,9.40
2019-05-11T21:26:48.837Z,9.37
2019-05-11T21:29:15.531Z,9.31
2019-05-11T21:31:42.143Z,9.29
2019-05-11T21:34:08.914Z,9.27
2019-05-11T21:36:37.696Z,9.26
2019-05-11T21:39:10.419Z,9.23
2019-05-11T21:41:38.655Z,9.20
2019-05-11T21:44:11.801Z,9.20
2019-05-11T21:46:38.914Z,9.19
2019-05-11T21:49:18.417Z,9.16
2019-05-11T21:52:03.690Z,9.17
2019-05-11T21:54:29.966Z,9.17
2019-05-11T21:57:07.739Z,9.15
2019-05-11T21:59:40.488Z,9.14
2019-05-11T22:02:08.293Z,9.13
2019-05-11T22:04:42.030Z,9.13
2019-05-11T22:07:08.648Z,9.13
2019-05-11T22:12:15.006Z,9.14
2019-05-11T22:14:41.644Z,9.17
2019-05-11T22:17:08.288Z,9.14
2019-05-11T22:19:34.908Z,9.15
2019-05-11T22:22:01.553Z,9.15
2019-05-11T22:24:28.330Z,9.12
2019-05-11T22:27:08.011Z,9.09
2019-05-11T22:29:41.649Z,9.10
2019-05-11T22:32:08.380Z,9.09
2019-05-11T22:34:34.984Z,9.08
2019-05-11T22:37:01.631Z,9.08
2019-05-11T22:39:28.238Z,9.05
2019-05-11T22:41:54.861Z,9.02
2019-05-11T22:44:21.507Z,8.99
2019-05-11T22:46:48.121Z,9.00
2019-05-11T22:49:14.741Z,9.01
2019-05-11T22:51:41.390Z,9.02
2019-05-11T22:54:10.988Z,9.05
2019-05-11T22:56:42.850Z,9.02
2019-05-11T22:59:09.453Z,9.03
2019-05-11T23:01:37.911Z,9.06
2019-05-11T23:04:10.642Z,9.07
2019-05-11T23:06:40.270Z,9.08
2019-05-11T23:09:18.448Z,9.09
2019-05-11T23:11:51.760Z,9.05
2019-05-11T23:14:19.957Z,9.02
2019-05-11T23:16:53.541Z,9.02
2019-05-11T23:19:20.179Z,9.06
2019-05-11T23:21:48.151Z,9.03
2019-05-11T23:24:21.575Z,9.02
2019-05-11T23:26:48.176Z,9.01
2019-05-11T23:29:14.795Z,9.00
2019-05-11T23:31:41.417Z,8.99
2019-05-11T23:34:08.430Z,8.99
2019-05-11T23:36:48.640Z,8.98
2019-05-11T23:39:21.461Z,8.97
2019-05-11T23:41:48.364Z,8.96
2019-05-11T23:44:26.501Z,8.96
2019-05-11T23:46:53.137Z,8.92
2019-05-11T23:49:19.730Z,8.93
2019-05-11T23:51:47.842Z,8.94
2019-05-11T23:54:24.833Z,8.93
2019-05-11T23:56:51.572Z,8.96
2019-05-11T23:59:18.807Z,8.94
